Saint-Jude, Canada
Current Conditions -  °F | °C
As of 2:00 PM on Thursday 30 Oct 2014 (Local Time) from CYHU Reporting Station
Overcast Overcast  
Wind Chill: 42°   Ceiling: 5000
Heat Index: 46°   Visibility: 9mi
Dew Point: 32°   Wind: 9mph
Humidity: 57%   Direction: 250°WSW
Pressure: 29.96"   Gusts: NA
Location:  45.77°N, 72.98°W
Report Text: CYHU 301800Z AUTO 25008KT 9SM SCT040 OVC050 08/M00 A2996 RMK SLP145
Loading
Personal Weather Stations






























Interactive Weather Map New forecast layout! Learn more

10-Day Weather Forecast

Advertisements
Track Severe Weather on mobile